createdAt,value
2022-09-09T00:04:41.631Z,100023.66
2022-09-09T00:09:49.361Z,100020.94
2022-09-09T00:14:55.706Z,100013.50
2022-09-09T00:20:03.253Z,100010.84
2022-09-09T00:25:14.038Z,100001.34
2022-09-09T00:30:20.767Z,100010.94
2022-09-09T00:35:26.259Z,100012.06
2022-09-09T00:40:35.374Z,99999.47
2022-09-09T00:46:00.789Z,100009.16
2022-09-09T00:51:12.279Z,100009.47
2022-09-09T00:56:22.631Z,100009.38
2022-09-09T01:01:25.517Z,100014.09
2022-09-09T01:06:32.722Z,100007.22
2022-09-09T01:11:45.044Z,100008.16
2022-09-09T01:16:49.073Z,100018.31
2022-09-09T01:22:02.665Z,100012.44
2022-09-09T01:27:08.630Z,100009.75
2022-09-09T01:32:41.042Z,100007.97
2022-09-09T01:37:44.217Z,99995.13
2022-09-09T01:42:48.338Z,100005.09
2022-09-09T01:47:51.375Z,100004.16
2022-09-09T01:52:59.783Z,100012.78
2022-09-09T01:58:24.576Z,100002.66
2022-09-09T02:03:29.242Z,99996.81
2022-09-09T02:08:39.205Z,100000.75
2022-09-09T02:13:46.001Z,100006.47
2022-09-09T02:18:54.269Z,99997.69
2022-09-09T02:23:59.195Z,100019.84
2022-09-09T02:29:06.951Z,100021.44
2022-09-09T02:34:13.012Z,100009.50
2022-09-09T02:39:16.110Z,100012.22
2022-09-09T02:44:21.303Z,100012.13
2022-09-09T02:49:34.761Z,100014.72
2022-09-09T02:54:40.234Z,100002.16
2022-09-09T02:59:46.058Z,99999.09
2022-09-09T03:04:51.909Z,99995.16
2022-09-09T03:09:55.929Z,100007.13
2022-09-09T03:14:59.974Z,100018.09
2022-09-09T03:20:03.610Z,100013.78
2022-09-09T03:25:07.778Z,100010.63
2022-09-09T03:30:12.901Z,99999.66
2022-09-09T03:35:16.475Z,100001.78
2022-09-09T03:40:20.380Z,100014.59
2022-09-09T03:45:24.290Z,100001.31
2022-09-09T03:50:26.941Z,99994.34
2022-09-09T03:55:29.352Z,100000.63
2022-09-09T04:00:33.542Z,100003.50
2022-09-09T04:05:36.117Z,100009.38
2022-09-09T04:10:38.782Z,100016.00
2022-09-09T04:15:43.174Z,100012.63
2022-09-09T04:20:48.450Z,100007.75
2022-09-09T04:25:52.376Z,100006.31
2022-09-09T04:30:57.902Z,100000.94
2022-09-09T04:36:00.667Z,100005.91
2022-09-09T04:41:03.155Z,100007.22
2022-09-09T04:46:07.902Z,100001.44
2022-09-09T04:51:13.508Z,100010.97
2022-09-09T04:56:18.406Z,100008.78
2022-09-09T05:01:24.813Z,100009.78
2022-09-09T05:06:27.365Z,100023.69
2022-09-09T05:11:31.886Z,100026.31
2022-09-09T05:16:35.703Z,100023.53
2022-09-09T05:21:38.301Z,100032.91
2022-09-09T05:26:40.816Z,100035.34
2022-09-09T05:31:44.803Z,100028.72
2022-09-09T05:36:47.974Z,100030.63
2022-09-09T05:41:50.565Z,100042.44
2022-09-09T05:46:55.331Z,100047.09
2022-09-09T05:51:57.909Z,100046.59
2022-09-09T05:57:00.563Z,100042.28
2022-09-09T06:02:04.440Z,100045.66
2022-09-09T06:07:07.954Z,100046.53
2022-09-09T06:12:10.880Z,100046.19
2022-09-09T06:17:14.653Z,100043.22
2022-09-09T06:22:17.656Z,100038.81
2022-09-09T06:27:20.099Z,100035.50
2022-09-09T06:32:24.085Z,100038.88
2022-09-09T06:37:27.903Z,100032.91
2022-09-09T06:42:30.529Z,100021.16
2022-09-09T06:47:34.662Z,100028.88
2022-09-09T06:52:37.109Z,100028.03
2022-09-09T06:57:39.493Z,100021.88
2022-09-09T07:02:43.385Z,100028.16
2022-09-09T07:07:45.829Z,100029.44
2022-09-09T07:12:53.615Z,100027.91
2022-09-09T07:17:57.631Z,100028.81
2022-09-09T07:23:00.338Z,100042.28
2022-09-09T07:28:04.328Z,100044.34
2022-09-09T07:33:08.694Z,100040.88
2022-09-09T07:38:12.123Z,100049.19
2022-09-09T07:43:17.370Z,100055.25
2022-09-09T07:48:21.284Z,100057.91
2022-09-09T07:53:23.992Z,100060.56
2022-09-09T07:58:26.384Z,100057.78
2022-09-09T08:03:30.208Z,100063.38
2022-09-09T08:08:32.689Z,100077.25
2022-09-09T08:13:36.414Z,100062.31
2022-09-09T08:18:41.081Z,100068.72
2022-09-09T08:23:44.513Z,100071.59
2022-09-09T08:28:47.124Z,100064.09
2022-09-09T08:33:53.256Z,100059.00
2022-09-09T08:38:57.469Z,100065.72
2022-09-09T08:44:04.330Z,100072.56
2022-09-09T08:49:19.506Z,100072.63
2022-09-09T08:54:48.381Z,100076.06
2022-09-09T08:59:44.910Z,100080.34
2022-09-09T09:05:01.240Z,100070.59
2022-09-09T09:10:30.536Z,100071.50
2022-09-09T09:15:39.841Z,100073.47
2022-09-09T09:20:52.796Z,100074.19
2022-09-09T09:26:00.406Z,100067.38
2022-09-09T09:31:07.099Z,100069.19
2022-09-09T09:36:11.078Z,100079.25
2022-09-09T09:41:13.431Z,100086.63
2022-09-09T09:46:24.406Z,100083.38
2022-09-09T09:51:30.226Z,100073.41
2022-09-09T09:56:33.452Z,100082.25
2022-09-09T10:01:37.214Z,100085.13
2022-09-09T10:06:41.655Z,100071.97
2022-09-09T10:11:53.376Z,100077.91
2022-09-09T10:17:09.834Z,100074.50
2022-09-09T10:22:27.711Z,100059.81
2022-09-09T10:27:40.556Z,100056.88
2022-09-09T10:32:48.814Z,100044.13
2022-09-09T10:38:07.930Z,100033.56
2022-09-09T10:43:22.097Z,100044.13
2022-09-09T10:48:38.221Z,100048.56
2022-09-09T10:53:54.477Z,100043.66
2022-09-09T10:59:02.533Z,100045.63
2022-09-09T11:04:11.842Z,100041.50
2022-09-09T11:09:19.302Z,100042.59
2022-09-09T11:14:28.839Z,100037.03
2022-09-09T11:19:36.829Z,100015.66
2022-09-09T11:24:44.053Z,100034.72
2022-09-09T11:30:04.371Z,100034.78
2022-09-09T11:35:25.262Z,100020.94
2022-09-09T11:40:31.503Z,100032.03
2022-09-09T11:45:36.777Z,100029.03
2022-09-09T11:50:41.430Z,100013.56
2022-09-09T11:55:45.639Z,100019.75
2022-09-09T12:00:51.026Z,100025.38
2022-09-09T12:05:54.227Z,100014.31
2022-09-09T12:11:00.488Z,100013.88
2022-09-09T12:16:06.220Z,100027.59
2022-09-09T12:21:20.585Z,100007.09
2022-09-09T12:26:42.916Z,100004.31
2022-09-09T12:31:50.758Z,100007.13
2022-09-09T12:37:00.280Z,99992.00
2022-09-09T12:42:05.123Z,99993.16
2022-09-09T12:47:08.083Z,99988.31
2022-09-09T12:52:15.742Z,99986.50
2022-09-09T12:57:19.782Z,99999.63
2022-09-09T13:02:24.351Z,99982.34
2022-09-09T13:07:27.440Z,99989.38
2022-09-09T13:12:31.364Z,99996.63
2022-09-09T13:17:34.360Z,99999.78
2022-09-09T13:22:38.541Z,99988.41
2022-09-09T13:27:44.154Z,99992.47
2022-09-09T13:32:46.726Z,99973.91
2022-09-09T13:37:49.204Z,99987.19
2022-09-09T13:42:58.098Z,99982.41
2022-09-09T13:48:11.093Z,99998.22
2022-09-09T13:53:13.739Z,99991.84
2022-09-09T13:58:22.613Z,99984.22
2022-09-09T14:03:25.195Z,99994.69
2022-09-09T14:08:29.341Z,99996.28
2022-09-09T14:13:33.890Z,99988.25
2022-09-09T14:18:36.623Z,99993.19
2022-09-09T14:23:39.922Z,99979.91
2022-09-09T14:28:59.589Z,99976.81
2022-09-09T14:34:02.325Z,99983.97
2022-09-09T14:39:05.296Z,99977.88
2022-09-09T14:44:09.101Z,99956.13
2022-09-09T14:49:13.749Z,99957.63
2022-09-09T14:54:17.217Z,99955.53
2022-09-09T14:59:21.012Z,99957.44
2022-09-09T15:04:23.649Z,99954.63
2022-09-09T15:09:26.346Z,99962.41
2022-09-09T15:14:30.209Z,99965.88
2022-09-09T15:19:33.246Z,99960.72
2022-09-09T15:24:36.403Z,99972.91
2022-09-09T15:29:40.316Z,99960.94
2022-09-09T15:34:42.988Z,99964.22
2022-09-09T15:39:45.475Z,99977.91
2022-09-09T15:44:49.277Z,99975.28
2022-09-09T15:49:51.633Z,99970.22
2022-09-09T15:54:54.129Z,99969.75
2022-09-09T15:59:57.885Z,99978.03
2022-09-09T16:05:01.285Z,99976.00
2022-09-09T16:10:04.385Z,99981.19
2022-09-09T16:15:14.346Z,99984.91
2022-09-09T16:20:16.828Z,99986.53
2022-09-09T16:25:19.679Z,99983.88
2022-09-09T16:30:23.439Z,99987.03
2022-09-09T16:35:25.872Z,99974.84
2022-09-09T16:40:28.389Z,99983.53
2022-09-09T16:45:33.120Z,99985.81
2022-09-09T16:50:35.810Z,99982.03
2022-09-09T16:55:43.394Z,99986.09
2022-09-09T17:00:48.615Z,99987.75
2022-09-09T17:05:51.742Z,99996.84
2022-09-09T17:10:54.227Z,99993.16
2022-09-09T17:16:02.772Z,99997.72
2022-09-09T17:21:07.583Z,99997.66
2022-09-09T17:26:12.436Z,100004.69
2022-09-09T17:31:18.714Z,100005.75
2022-09-09T17:36:23.818Z,100001.22
2022-09-09T17:41:28.608Z,100004.31
2022-09-09T17:46:35.278Z,100000.31
2022-09-09T17:51:38.307Z,100005.25
2022-09-09T17:56:42.125Z,100010.00
2022-09-09T18:01:47.800Z,100017.22
2022-09-09T18:06:52.146Z,100019.78
2022-09-09T18:11:56.679Z,100028.97
2022-09-09T18:17:01.719Z,100043.06
2022-09-09T18:22:06.878Z,100038.88
2022-09-09T18:27:09.319Z,100047.75
2022-09-09T18:32:14.987Z,100045.50
2022-09-09T18:37:19.642Z,100055.53
2022-09-09T18:42:22.121Z,100049.31
2022-09-09T18:47:25.966Z,100046.00
2022-09-09T18:52:28.452Z,100064.59
2022-09-09T18:57:35.838Z,100067.16
2022-09-09T19:02:40.370Z,100066.16
2022-09-09T19:07:42.757Z,100079.16
2022-09-09T19:12:45.221Z,100070.34
2022-09-09T19:17:49.156Z,100070.19
2022-09-09T19:22:52.508Z,100062.44
2022-09-09T19:27:54.940Z,100073.31
2022-09-09T19:32:59.158Z,100082.66
2022-09-09T19:38:01.837Z,100087.28
2022-09-09T19:43:04.378Z,100088.13
2022-09-09T19:48:09.306Z,100090.72
2022-09-09T19:53:11.823Z,100096.13
2022-09-09T19:58:14.750Z,100105.34
2022-09-09T20:03:19.958Z,100096.66
2022-09-09T20:08:22.723Z,100106.06
2022-09-09T20:13:25.334Z,100110.28
2022-09-09T20:18:32.268Z,100107.94
2022-09-09T20:23:34.980Z,100110.91
2022-09-09T20:28:39.169Z,100120.47
2022-09-09T20:33:43.529Z,100116.25
2022-09-09T20:38:48.214Z,100111.34
2022-09-09T20:43:52.031Z,100116.41
2022-09-09T20:48:59.691Z,100120.91
2022-09-09T20:54:07.107Z,100119.19
2022-09-09T20:59:13.118Z,100116.47
2022-09-09T21:04:19.018Z,100125.09
2022-09-09T21:09:24.580Z,100122.84
2022-09-09T21:14:27.935Z,100125.38
2022-09-09T21:19:31.695Z,100133.13
2022-09-09T21:24:36.253Z,100130.63
2022-09-09T21:29:38.697Z,100122.06
2022-09-09T21:34:42.748Z,100112.50
2022-09-09T21:39:48.082Z,100121.19
2022-09-09T21:44:50.553Z,100123.75
2022-09-09T21:49:54.341Z,100125.19
2022-09-09T21:54:57.918Z,100114.88
2022-09-09T22:00:00.341Z,100114.16
2022-09-09T22:05:04.361Z,100120.56
2022-09-09T22:10:08.547Z,100124.44
2022-09-09T22:15:11.320Z,100120.69
2022-09-09T22:20:15.140Z,100121.16
2022-09-09T22:25:17.578Z,100121.78
2022-09-09T22:30:20.454Z,100131.63
2022-09-09T22:35:24.426Z,100135.44
2022-09-09T22:40:26.962Z,100136.25
2022-09-09T22:45:29.676Z,100133.22
2022-09-09T22:50:40.119Z,100126.03
2022-09-09T22:55:44.724Z,100116.44
2022-09-09T23:00:47.335Z,100114.09
2022-09-09T23:06:06.665Z,100108.09
2022-09-09T23:11:11.035Z,100105.97
2022-09-09T23:16:13.756Z,100105.63
2022-09-09T23:21:17.574Z,100109.03
2022-09-09T23:26:20.832Z,100107.00
2022-09-09T23:31:24.834Z,100104.44
2022-09-09T23:36:30.593Z,100103.41
2022-09-09T23:41:39.940Z,100100.13
2022-09-09T23:46:42.638Z,100105.53
2022-09-09T23:51:48.740Z,100087.53
2022-09-09T23:56:51.197Z,100098.56
